Terminal Aerodrome Forecast
Issued by NWS

Home | Current Version | Previous Version | Text Only | Print | Product List | Glossary Off
Versions: 1 2 3 4 5 6 7 8 9 10 11 12 13 14 15 16 17 18 19 20 21 22 23 24 25 26

897
FTUS43 KLOT 211140
TAFDPA
TAF
KDPA 211140Z 2112/2212 17005KT 4SM BR SCT005 BKN025 OVC045
      TEMPO 2112/2113 3SM BR BKN005
     FM211300 15004KT 3SM BR OVC005
      TEMPO 2114/2116 1SM BR OVC004
     FM211900 10004KT 1 1/2SM -DZ BR OVC008
      TEMPO 2121/2124 3/4SM -DZ BR OVC003=

USA.gov is the U.S. government's official web portal to all federal, state and local government web resources and services.